Time;durP1;ratioP1;P1;durP2;ratioP2;P2;SDS_P1;SDS_P2;PMS_P1;PMS_P2;Temp;Humidity;BMP_temperature;BMP_pressure;BME280_temperature;BME280_humidity;BME280_pressure;Samples;Min_cycle;Max_cycle;Signal;HPM_P1;HPM_P2
2023/09/30 00:01:44;;;;;;;23.58;5.80;;;12.90;99.90;;;;;;5059903;28;20025;-74
2023/09/30 00:04:10;;;;;;;20.60;6.00;;;12.90;99.90;;;;;;5061219;28;20027;-75
2023/09/30 00:06:36;;;;;;;30.10;6.47;;;12.90;99.90;;;;;;5061093;28;20116;-74
2023/09/30 00:09:02;;;;;;;26.42;5.88;;;12.80;99.90;;;;;;5061040;28;20040;-72
2023/09/30 00:11:27;;;;;;;30.92;6.32;;;12.80;99.90;;;;;;5060774;28;20127;-73
2023/09/30 00:13:53;;;;;;;27.08;6.35;;;12.80;99.90;;;;;;5058704;28;20142;-74
2023/09/30 00:16:19;;;;;;;26.42;5.70;;;12.80;99.90;;;;;;5060058;28;20025;-72
2023/09/30 00:18:45;;;;;;;25.38;5.95;;;12.80;99.90;;;;;;5060472;28;20020;-74
2023/09/30 00:21:11;;;;;;;24.00;5.97;;;12.80;99.90;;;;;;5061344;28;20035;-75
2023/09/30 00:23:37;;;;;;;22.63;5.30;;;12.80;99.90;;;;;;5059489;28;20410;-75
2023/09/30 00:26:02;;;;;;;27.10;5.75;;;12.80;99.90;;;;;;5059256;28;20085;-75
2023/09/30 00:28:28;;;;;;;22.40;5.45;;;12.80;99.90;;;;;;5059415;28;20044;-74
2023/09/30 00:30:54;;;;;;;26.45;5.25;;;12.80;99.90;;;;;;5061040;28;20151;-73
2023/09/30 00:33:20;;;;;;;28.95;5.97;;;12.80;99.90;;;;;;5060349;28;20084;-73
2023/09/30 00:35:46;;;;;;;25.17;5.35;;;12.80;99.90;;;;;;5061051;28;20037;-75
2023/09/30 00:38:11;;;;;;;21.65;5.78;;;12.80;99.90;;;;;;5059790;28;20390;-74
2023/09/30 00:40:37;;;;;;;23.10;4.97;;;12.80;99.90;;;;;;5059229;28;20807;-74
2023/09/30 00:43:03;;;;;;;23.17;5.55;;;12.80;99.90;;;;;;5061030;28;20045;-74
2023/09/30 00:45:30;;;;;;;27.02;5.57;;;12.70;99.90;;;;;;5060593;28;20025;-75
2023/09/30 00:47:55;;;;;;;22.38;5.18;;;12.80;99.90;;;;;;5058333;28;20025;-74
2023/09/30 00:50:21;;;;;;;23.33;6.03;;;12.80;99.90;;;;;;5060533;28;20123;-74
2023/09/30 00:52:48;;;;;;;25.02;5.57;;;12.70;99.90;;;;;;5061050;28;20025;-76
2023/09/30 00:55:15;;;;;;;23.50;5.70;;;12.70;99.90;;;;;;5060820;28;20626;-74
2023/09/30 00:57:41;;;;;;;27.85;5.78;;;12.70;99.90;;;;;;5059207;28;20025;-74
2023/09/30 01:00:11;;;;;;;28.75;5.00;;;12.70;99.90;;;;;;5059214;28;20021;-75
2023/09/30 01:02:41;;;;;;;27.63;5.97;;;12.60;99.90;;;;;;5058950;28;20094;-74
2023/09/30 01:05:08;;;;;;;25.17;5.25;;;12.60;99.90;;;;;;5059554;28;20025;-73
2023/09/30 01:07:34;;;;;;;20.10;5.50;;;12.60;99.90;;;;;;5060458;28;20405;-74
2023/09/30 01:10:01;;;;;;;19.60;5.57;;;12.60;99.90;;;;;;5060235;28;20044;-74
2023/09/30 01:12:27;;;;;;;25.27;4.90;;;12.60;99.90;;;;;;5059273;28;20048;-75
2023/09/30 01:14:58;;;;;;;21.45;6.40;;;12.50;99.90;;;;;;5060456;28;20029;-75
2023/09/30 01:17:23;;;;;;;22.88;5.88;;;12.50;99.90;;;;;;5059989;28;20025;-75
2023/09/30 01:19:49;;;;;;;32.30;5.97;;;12.50;99.90;;;;;;5059092;28;20071;-74
2023/09/30 01:22:16;;;;;;;30.15;5.28;;;12.50;99.90;;;;;;5059649;28;20082;-75
2023/09/30 01:24:42;;;;;;;25.75;5.90;;;12.40;99.90;;;;;;5059224;28;20033;-74
2023/09/30 01:27:11;;;;;;;21.45;5.55;;;12.50;99.90;;;;;;5060493;28;20025;-75
2023/09/30 01:29:38;;;;;;;21.42;5.60;;;12.50;99.90;;;;;;5059850;28;20033;-73
2023/09/30 01:32:09;;;;;;;28.90;6.43;;;12.50;99.90;;;;;;5059326;28;20096;-73
2023/09/30 01:34:35;;;;;;;30.23;6.03;;;12.40;99.90;;;;;;5059842;28;20017;-74
2023/09/30 01:37:01;;;;;;;28.88;6.47;;;12.40;99.90;;;;;;5060253;28;20049;-74
2023/09/30 01:39:26;;;;;;;34.97;6.90;;;12.40;99.90;;;;;;5063837;28;20091;-74
2023/09/30 01:41:53;;;;;;;22.85;5.55;;;12.40;99.90;;;;;;5062605;28;20127;-75
2023/09/30 01:44:19;;;;;;;24.33;6.07;;;12.40;99.90;;;;;;5063021;28;20013;-75
2023/09/30 01:46:45;;;;;;;25.60;6.13;;;12.40;99.90;;;;;;5063875;28;20038;-75
2023/09/30 01:49:11;;;;;;;27.60;5.82;;;12.50;99.90;;;;;;5061714;28;20025;-75
2023/09/30 01:51:36;;;;;;;22.20;5.45;;;12.50;99.90;;;;;;5063618;28;20063;-74
2023/09/30 01:54:02;;;;;;;27.60;6.30;;;12.50;99.90;;;;;;5063972;28;20049;-75
2023/09/30 01:56:28;;;;;;;25.52;5.78;;;12.50;99.90;;;;;;5061587;28;20029;-74
2023/09/30 01:58:54;;;;;;;23.25;6.05;;;12.50;99.90;;;;;;5062967;28;20021;-75
2023/09/30 02:01:20;;;;;;;23.50;6.15;;;12.50;99.90;;;;;;5063611;28;20033;-75
2023/09/30 02:03:46;;;;;;;24.60;6.55;;;12.50;99.90;;;;;;5060653;28;20058;-74
2023/09/30 02:06:12;;;;;;;27.48;6.15;;;12.50;99.90;;;;;;5063189;28;20013;-75
2023/09/30 02:08:38;;;;;;;32.50;6.30;;;12.50;99.90;;;;;;5063215;28;20068;-75
2023/09/30 02:11:07;;;;;;;30.20;6.45;;;12.40;99.90;;;;;;5063263;28;20506;-74
2023/09/30 02:13:36;;;;;;;34.53;6.70;;;12.50;99.90;;;;;;5061726;28;20036;-75
2023/09/30 02:16:01;;;;;;;26.80;6.13;;;12.50;99.90;;;;;;5061833;28;20024;-75
2023/09/30 02:18:27;;;;;;;35.80;7.30;;;12.40;99.90;;;;;;5062611;28;20403;-74
2023/09/30 02:20:53;;;;;;;29.10;5.93;;;12.50;99.90;;;;;;5061002;28;20017;-75
2023/09/30 02:23:20;;;;;;;27.15;6.57;;;12.40;99.90;;;;;;5063156;28;20036;-76
2023/09/30 02:25:45;;;;;;;24.88;6.35;;;12.40;99.90;;;;;;5063102;28;20101;-74
2023/09/30 02:28:12;;;;;;;31.85;6.50;;;12.40;99.90;;;;;;5063130;28;20052;-75
2023/09/30 02:30:38;;;;;;;19.38;6.10;;;12.30;99.90;;;;;;5062993;28;20029;-74
2023/09/30 02:33:04;;;;;;;27.80;6.13;;;12.40;99.90;;;;;;5062581;28;20025;-75
2023/09/30 02:35:30;;;;;;;27.98;6.15;;;12.40;99.90;;;;;;5060580;28;20025;-76
2023/09/30 02:37:56;;;;;;;23.17;6.20;;;12.40;99.90;;;;;;5062365;28;20052;-74
2023/09/30 02:40:24;;;;;;;27.10;5.75;;;12.40;99.90;;;;;;5062774;28;20151;-75
2023/09/30 02:42:50;;;;;;;21.42;5.80;;;12.40;99.90;;;;;;5061658;28;21362;-74
2023/09/30 02:45:17;;;;;;;26.35;6.13;;;12.40;99.90;;;;;;5060268;28;20028;-76
2023/09/30 02:47:43;;;;;;;25.75;5.78;;;12.40;99.90;;;;;;5062288;28;20021;-75
2023/09/30 02:50:12;;;;;;;24.08;5.72;;;12.40;99.90;;;;;;5062834;28;20041;-76
2023/09/30 02:52:41;;;;;;;25.58;6.30;;;12.40;99.90;;;;;;5060943;28;20028;-75
2023/09/30 02:55:11;;;;;;;26.20;6.00;;;12.40;99.90;;;;;;5061056;28;20021;-76
2023/09/30 02:57:37;;;;;;;28.48;5.95;;;12.30;99.90;;;;;;5060528;28;20025;-74
2023/09/30 03:00:14;;;;;;;21.95;5.65;;;12.20;99.90;;;;;;5061423;28;20051;-74
2023/09/30 03:02:39;;;;;;;22.80;5.38;;;12.30;99.90;;;;;;5062261;28;20115;-76
2023/09/30 03:05:06;;;;;;;25.27;6.28;;;12.30;99.90;;;;;;5062215;28;20013;-76
2023/09/30 03:07:33;;;;;;;23.95;5.90;;;12.30;99.90;;;;;;5061839;28;20025;-74
2023/09/30 03:10:00;;;;;;;23.15;5.88;;;12.30;99.90;;;;;;5062582;28;20037;-74
2023/09/30 03:12:25;;;;;;;29.88;6.22;;;12.30;99.90;;;;;;5059132;28;20060;-74
2023/09/30 03:14:51;;;;;;;31.45;5.88;;;12.30;99.90;;;;;;5062268;28;20029;-76
2023/09/30 03:17:17;;;;;;;25.98;6.30;;;12.20;99.90;;;;;;5061941;28;20074;-76
2023/09/30 03:19:43;;;;;;;23.17;5.95;;;12.20;99.90;;;;;;5061729;28;20032;-75
2023/09/30 03:22:11;;;;;;;22.25;5.88;;;12.20;99.90;;;;;;5061277;28;20044;-74
2023/09/30 03:24:41;;;;;;;27.08;6.03;;;12.30;99.90;;;;;;5060721;28;20027;-76
2023/09/30 03:27:07;;;;;;;21.38;6.20;;;12.30;99.90;;;;;;5061598;28;20474;-75
2023/09/30 03:29:35;;;;;;;27.63;6.55;;;12.30;99.90;;;;;;5061686;28;20028;-75
2023/09/30 03:32:00;;;;;;;21.77;5.70;;;12.30;99.90;;;;;;5061010;28;20025;-75
2023/09/30 03:34:26;;;;;;;30.83;6.25;;;12.30;99.90;;;;;;5061517;28;20025;-75
2023/09/30 03:36:54;;;;;;;24.83;5.95;;;12.30;99.90;;;;;;5061574;28;20041;-75
2023/09/30 03:39:26;;;;;;;19.95;5.82;;;12.30;99.90;;;;;;5061275;28;20017;-75
2023/09/30 03:41:54;;;;;;;22.70;6.30;;;12.30;99.90;;;;;;5062024;28;20442;-75
2023/09/30 03:44:19;;;;;;;19.38;5.85;;;12.40;99.90;;;;;;5061709;28;20025;-75
2023/09/30 03:46:45;;;;;;;24.48;6.07;;;12.30;99.90;;;;;;5060704;28;20021;-74
2023/09/30 03:49:10;;;;;;;19.83;6.32;;;12.30;99.90;;;;;;5060594;28;20044;-75
2023/09/30 03:51:37;;;;;;;25.65;6.32;;;12.30;99.90;;;;;;5062167;28;20381;-74
2023/09/30 03:54:02;;;;;;;20.98;6.18;;;12.30;99.90;;;;;;5061769;28;20056;-75
2023/09/30 03:56:28;;;;;;;23.85;5.80;;;12.30;99.90;;;;;;5060361;28;20021;-75
2023/09/30 03:58:54;;;;;;;26.58;6.07;;;12.30;99.90;;;;;;5058323;28;20421;-75
2023/09/30 04:01:19;;;;;;;21.92;5.90;;;12.30;99.90;;;;;;5061111;28;20544;-75
2023/09/30 04:03:45;;;;;;;23.88;6.00;;;12.20;99.90;;;;;;5059699;28;20027;-73
2023/09/30 04:06:12;;;;;;;20.52;5.63;;;12.30;99.90;;;;;;5061060;28;20049;-75
2023/09/30 04:08:38;;;;;;;25.27;6.00;;;12.30;99.90;;;;;;5059378;28;20025;-74
2023/09/30 04:11:04;;;;;;;27.88;6.25;;;12.20;99.90;;;;;;5061751;28;20035;-76
2023/09/30 04:13:29;;;;;;;26.67;6.55;;;12.30;99.90;;;;;;5060290;28;20077;-75
2023/09/30 04:15:58;;;;;;;20.50;5.80;;;12.20;99.90;;;;;;5061199;28;20037;-73
2023/09/30 04:18:26;;;;;;;20.35;5.72;;;12.30;99.90;;;;;;5060917;28;20042;-75
2023/09/30 04:20:52;;;;;;;22.13;6.00;;;12.30;99.90;;;;;;5061565;28;20029;-74
2023/09/30 04:23:20;;;;;;;24.08;6.55;;;12.30;99.90;;;;;;5060391;28;20055;-75
2023/09/30 04:25:46;;;;;;;22.02;6.38;;;12.30;99.90;;;;;;5061567;28;20017;-75
2023/09/30 04:28:13;;;;;;;23.38;6.25;;;12.20;99.90;;;;;;5061750;28;20017;-74
2023/09/30 04:30:39;;;;;;;30.30;6.00;;;12.30;99.90;;;;;;5061073;28;20076;-76
2023/09/30 04:33:05;;;;;;;22.35;6.00;;;12.20;99.90;;;;;;5061560;28;20074;-75
2023/09/30 04:35:31;;;;;;;21.48;6.15;;;12.20;99.90;;;;;;5061231;28;20032;-75
2023/09/30 04:38:01;;;;;;;25.55;6.05;;;12.20;99.90;;;;;;5059788;28;20049;-75
2023/09/30 04:40:27;;;;;;;27.17;6.25;;;12.20;99.90;;;;;;5059850;28;20036;-76
2023/09/30 04:42:58;;;;;;;23.17;6.00;;;12.20;99.90;;;;;;5059839;28;20805;-76
2023/09/30 04:45:25;;;;;;;21.85;6.13;;;12.20;99.90;;;;;;5061205;28;20117;-73
2023/09/30 04:47:57;;;;;;;17.98;5.38;;;12.20;99.90;;;;;;5061403;28;20081;-73
2023/09/30 04:50:23;;;;;;;25.13;5.70;;;12.20;99.90;;;;;;5060648;28;20037;-74
2023/09/30 04:52:51;;;;;;;20.00;5.70;;;12.20;99.90;;;;;;5061017;28;20028;-75
2023/09/30 04:55:18;;;;;;;22.33;5.82;;;12.20;99.90;;;;;;5061405;28;20031;-76
2023/09/30 04:57:48;;;;;;;28.42;6.45;;;12.20;99.90;;;;;;5060492;28;20016;-74
2023/09/30 05:00:15;;;;;;;20.42;6.13;;;12.20;99.90;;;;;;5061481;28;20032;-75
2023/09/30 05:02:40;;;;;;;28.13;6.07;;;12.20;99.90;;;;;;5060786;28;20031;-75
2023/09/30 05:05:07;;;;;;;20.48;5.57;;;12.20;99.90;;;;;;5059850;28;20049;-74
2023/09/30 05:07:32;;;;;;;22.42;6.55;;;12.20;99.90;;;;;;5059177;28;20059;-74
2023/09/30 05:09:59;;;;;;;27.40;6.45;;;12.20;99.90;;;;;;5060552;28;20036;-74
2023/09/30 05:12:25;;;;;;;22.98;5.65;;;12.20;99.90;;;;;;5063375;28;21388;-75
2023/09/30 05:14:52;;;;;;;23.30;6.00;;;12.20;99.90;;;;;;5063277;28;20021;-74
2023/09/30 05:17:17;;;;;;;24.20;6.03;;;12.20;99.90;;;;;;5064918;28;20017;-76
2023/09/30 05:19:44;;;;;;;27.73;5.68;;;12.20;99.90;;;;;;5063579;28;20029;-74
2023/09/30 05:22:10;;;;;;;22.08;5.75;;;12.20;99.90;;;;;;5062200;28;20041;-73
2023/09/30 05:24:35;;;;;;;23.45;6.22;;;12.20;99.90;;;;;;5064242;28;20029;-73
2023/09/30 05:27:01;;;;;;;22.88;5.93;;;12.20;99.90;;;;;;5064032;28;20059;-73
2023/09/30 05:29:27;;;;;;;26.52;5.60;;;12.20;99.90;;;;;;5064389;28;20040;-73
2023/09/30 05:31:53;;;;;;;31.10;5.85;;;12.20;99.90;;;;;;5060861;28;20025;-73
2023/09/30 05:34:18;;;;;;;18.10;5.40;;;12.20;99.90;;;;;;5063512;28;20395;-72
2023/09/30 05:36:44;;;;;;;23.55;5.22;;;12.20;99.90;;;;;;5064698;28;20475;-73
2023/09/30 05:39:10;;;;;;;24.55;5.95;;;12.20;99.90;;;;;;5063084;28;20509;-73
2023/09/30 05:41:37;;;;;;;25.25;5.65;;;12.30;99.90;;;;;;5064661;28;20033;-74
2023/09/30 05:44:03;;;;;;;19.42;5.10;;;12.20;99.90;;;;;;5064036;28;20078;-73
2023/09/30 05:46:31;;;;;;;25.77;5.57;;;12.20;99.90;;;;;;5062060;28;20056;-74
2023/09/30 05:48:56;;;;;;;21.08;5.93;;;12.20;99.90;;;;;;5064247;28;20044;-73
2023/09/30 05:51:22;;;;;;;21.17;5.60;;;12.10;99.90;;;;;;5063941;28;20059;-74
2023/09/30 05:53:48;;;;;;;21.05;5.32;;;12.20;99.90;;;;;;5064443;28;20041;-73
2023/09/30 05:56:15;;;;;;;26.48;6.03;;;12.20;99.90;;;;;;5062954;28;20033;-73
2023/09/30 05:58:41;;;;;;;20.90;5.63;;;12.20;99.90;;;;;;5063759;28;20025;-74
2023/09/30 06:01:18;;;;;;;20.52;5.60;;;12.10;99.90;;;;;;5064321;28;20021;-74
2023/09/30 06:03:47;;;;;;;22.15;5.60;;;12.10;99.90;;;;;;5064163;28;20540;-74
2023/09/30 06:06:15;;;;;;;25.85;6.30;;;12.10;99.90;;;;;;5062504;28;20068;-74
2023/09/30 06:08:47;;;;;;;19.23;5.82;;;12.10;99.90;;;;;;5064128;28;20020;-72
2023/09/30 06:11:22;;;;;;;25.00;5.88;;;12.10;99.90;;;;;;5061842;28;20025;-73
2023/09/30 06:13:55;;;;;;;20.48;6.22;;;12.20;99.90;;;;;;5061934;28;20041;-74
2023/09/30 06:16:21;;;;;;;24.95;6.28;;;12.20;99.90;;;;;;5063385;28;20025;-73
2023/09/30 06:18:48;;;;;;;17.75;5.50;;;12.20;99.90;;;;;;5063910;28;20116;-73
2023/09/30 06:21:14;;;;;;;21.23;5.97;;;12.20;99.90;;;;;;5063547;28;20017;-74
2023/09/30 06:23:40;;;;;;;22.58;5.70;;;12.20;99.90;;;;;;5062047;28;20046;-72
2023/09/30 06:26:06;;;;;;;20.27;5.90;;;12.20;99.90;;;;;;5063617;28;20024;-74
2023/09/30 06:28:33;;;;;;;20.92;5.43;;;12.30;99.90;;;;;;5063381;28;20108;-75
2023/09/30 06:30:59;;;;;;;19.02;5.53;;;12.30;99.90;;;;;;5063856;28;20100;-73
2023/09/30 06:33:25;;;;;;;22.25;5.72;;;12.40;99.90;;;;;;5062916;28;20025;-75
2023/09/30 06:35:52;;;;;;;24.15;6.38;;;12.40;99.90;;;;;;5063132;28;20029;-74
2023/09/30 06:38:19;;;;;;;17.98;5.03;;;12.40;99.90;;;;;;5062594;28;20044;-73
2023/09/30 06:40:47;;;;;;;19.85;5.90;;;12.40;99.90;;;;;;5061335;28;20074;-74
2023/09/30 06:43:16;;;;;;;18.10;6.15;;;12.50;99.90;;;;;;5062039;28;20020;-74
2023/09/30 06:45:43;;;;;;;18.30;5.85;;;12.50;99.90;;;;;;5063586;28;20021;-73
2023/09/30 06:48:15;;;;;;;17.73;5.53;;;12.60;99.90;;;;;;5063244;28;20119;-74
2023/09/30 06:50:50;;;;;;;25.98;6.13;;;12.60;99.90;;;;;;5063370;28;20037;-74
2023/09/30 06:53:19;;;;;;;22.30;5.90;;;12.70;99.90;;;;;;5063333;28;20028;-72
2023/09/30 06:55:47;;;;;;;23.27;6.05;;;12.70;99.90;;;;;;5062575;28;20035;-74
2023/09/30 06:58:13;;;;;;;17.48;5.40;;;12.80;99.90;;;;;;5063204;28;20029;-75
2023/09/30 07:00:41;;;;;;;26.63;6.10;;;12.80;99.90;;;;;;5063078;28;20020;-72
2023/09/30 07:03:09;;;;;;;18.30;5.88;;;12.90;99.90;;;;;;5062301;28;20073;-73
2023/09/30 07:05:35;;;;;;;20.08;6.00;;;12.90;99.90;;;;;;5061558;28;20040;-73
2023/09/30 07:08:01;;;;;;;19.92;5.97;;;12.90;99.90;;;;;;5061162;28;20048;-72
2023/09/30 07:10:29;;;;;;;21.67;6.13;;;13.00;99.90;;;;;;5061221;28;20040;-72
2023/09/30 07:12:55;;;;;;;25.08;5.95;;;13.00;99.90;;;;;;5062390;28;20017;-73
2023/09/30 07:15:20;;;;;;;25.67;6.60;;;13.00;99.90;;;;;;5062669;28;20104;-73
2023/09/30 07:17:47;;;;;;;18.80;6.18;;;13.10;99.90;;;;;;5061299;28;20074;-73
2023/09/30 07:20:14;;;;;;;21.70;5.80;;;13.10;99.90;;;;;;5062611;28;20021;-73
2023/09/30 07:22:40;;;;;;;24.05;6.32;;;13.20;99.90;;;;;;5062323;28;20033;-74
2023/09/30 07:25:06;;;;;;;25.50;6.47;;;13.20;99.90;;;;;;5061504;28;20088;-73
2023/09/30 07:27:32;;;;;;;18.52;5.85;;;13.30;99.90;;;;;;5062480;28;20025;-73
2023/09/30 07:29:57;;;;;;;24.15;6.53;;;13.30;99.90;;;;;;5061166;28;20092;-72
2023/09/30 07:32:23;;;;;;;18.15;5.82;;;13.40;99.90;;;;;;5061613;28;20035;-74
2023/09/30 07:34:52;;;;;;;23.65;5.68;;;13.50;99.90;;;;;;5061937;28;20021;-74
2023/09/30 07:37:18;;;;;;;21.15;6.13;;;13.60;99.90;;;;;;5058577;28;20053;-75
2023/09/30 07:39:45;;;;;;;22.30;6.30;;;13.60;99.90;;;;;;5061859;28;20016;-72
2023/09/30 07:42:11;;;;;;;18.58;5.70;;;13.70;99.90;;;;;;5060486;28;20056;-74
2023/09/30 07:44:39;;;;;;;18.52;6.10;;;13.80;99.90;;;;;;5062075;28;20017;-74
2023/09/30 07:47:08;;;;;;;25.75;5.65;;;14.00;99.90;;;;;;5060441;28;20481;-71
2023/09/30 07:49:34;;;;;;;24.38;5.60;;;14.00;99.90;;;;;;5059997;28;20029;-70
2023/09/30 07:51:59;;;;;;;20.45;5.38;;;14.20;99.90;;;;;;5061796;28;20120;-70
2023/09/30 07:54:25;;;;;;;15.82;5.30;;;14.30;99.90;;;;;;5062195;28;20505;-72
2023/09/30 07:56:51;;;;;;;21.45;6.20;;;14.40;99.90;;;;;;5059987;28;20032;-73
2023/09/30 07:59:16;;;;;;;18.30;5.20;;;14.50;99.90;;;;;;5058424;28;20034;-73
2023/09/30 08:01:42;;;;;;;18.55;5.00;;;14.60;99.90;;;;;;5059624;28;20029;-71
2023/09/30 08:04:07;;;;;;;18.15;5.72;;;14.70;99.90;;;;;;5060510;28;20100;-72
2023/09/30 08:06:33;;;;;;;24.10;5.50;;;14.70;99.90;;;;;;5059696;28;20027;-72
2023/09/30 08:08:59;;;;;;;14.77;4.97;;;14.80;99.90;;;;;;5060258;28;20060;-72
2023/09/30 08:11:27;;;;;;;18.77;5.30;;;14.90;99.90;;;;;;5058533;28;20025;-73
2023/09/30 08:13:53;;;;;;;15.00;4.82;;;15.00;99.90;;;;;;5059714;28;20021;-72
2023/09/30 08:16:19;;;;;;;22.58;5.32;;;15.00;99.90;;;;;;5060312;28;20039;-73
2023/09/30 08:18:45;;;;;;;15.13;5.25;;;15.10;99.90;;;;;;5059534;28;20021;-72
2023/09/30 08:21:11;;;;;;;16.17;4.93;;;15.10;99.90;;;;;;5059837;28;20031;-72
2023/09/30 08:23:38;;;;;;;17.55;4.70;;;15.10;99.90;;;;;;5060329;28;21030;-72
2023/09/30 08:26:05;;;;;;;18.75;5.15;;;15.20;99.90;;;;;;5061771;28;20017;-73
2023/09/30 08:28:32;;;;;;;26.00;5.28;;;15.30;99.90;;;;;;5059720;28;20024;-72
2023/09/30 08:31:05;;;;;;;18.50;5.25;;;15.30;99.90;;;;;;5059234;28;20044;-71
2023/09/30 08:33:31;;;;;;;15.35;4.85;;;15.30;99.90;;;;;;5059962;28;20029;-73
2023/09/30 08:36:07;;;;;;;17.27;5.13;;;15.40;99.90;;;;;;5058695;28;20086;-72
2023/09/30 08:38:36;;;;;;;16.88;5.28;;;15.40;99.90;;;;;;5059276;28;20045;-73
2023/09/30 08:41:02;;;;;;;13.35;4.82;;;15.40;99.90;;;;;;5061259;28;20017;-72
2023/09/30 08:43:30;;;;;;;13.32;4.90;;;15.40;99.90;;;;;;5061231;28;20059;-72
2023/09/30 08:45:56;;;;;;;24.52;5.40;;;15.50;99.90;;;;;;5062444;28;20424;-73
2023/09/30 08:48:24;;;;;;;18.27;5.32;;;15.50;99.90;;;;;;5065522;28;20064;-70
2023/09/30 08:50:52;;;;;;;23.27;5.22;;;15.60;99.90;;;;;;5062759;28;20055;-71
2023/09/30 08:53:19;;;;;;;15.85;5.20;;;15.60;99.90;;;;;;5062667;28;20084;-70
2023/09/30 08:55:46;;;;;;;16.58;4.93;;;15.70;99.90;;;;;;5064049;28;20033;-73
2023/09/30 08:58:12;;;;;;;16.95;5.05;;;15.70;99.90;;;;;;5065312;28;20029;-72
2023/09/30 09:00:38;;;;;;;19.88;5.15;;;15.80;99.90;;;;;;5064346;28;20029;-73
2023/09/30 09:03:08;;;;;;;19.95;5.45;;;15.90;99.90;;;;;;5064755;28;20565;-72
2023/09/30 09:05:34;;;;;;;17.80;4.72;;;15.90;99.90;;;;;;5063100;28;21874;-72
2023/09/30 09:07:59;;;;;;;15.80;4.40;;;16.10;99.90;;;;;;5063019;28;20036;-73
2023/09/30 09:10:25;;;;;;;14.25;4.25;;;16.10;99.90;;;;;;5061657;28;20497;-73
2023/09/30 09:12:56;;;;;;;14.85;4.07;;;16.20;99.90;;;;;;5062537;28;20070;-72
2023/09/30 09:15:26;;;;;;;11.90;4.05;;;16.20;99.90;;;;;;5064095;28;20029;-74
2023/09/30 09:17:52;;;;;;;15.82;4.43;;;16.30;99.90;;;;;;5064513;28;20036;-72
2023/09/30 09:20:24;;;;;;;16.00;4.43;;;16.30;99.90;;;;;;5062729;28;20029;-71
2023/09/30 09:22:55;;;;;;;15.57;3.83;;;16.30;99.90;;;;;;5062489;28;20032;-72
2023/09/30 09:25:25;;;;;;;15.40;4.72;;;16.40;99.90;;;;;;5065062;28;20025;-72
2023/09/30 09:27:51;;;;;;;15.43;4.28;;;16.40;99.90;;;;;;5063363;28;20028;-72
2023/09/30 09:30:24;;;;;;;17.05;4.28;;;16.50;99.90;;;;;;5064856;28;20056;-73
2023/09/30 09:32:59;;;;;;;11.43;3.30;;;16.50;99.90;;;;;;5063573;28;20382;-71
2023/09/30 09:35:28;;;;;;;18.77;3.92;;;16.60;99.90;;;;;;5062869;28;20059;-72
2023/09/30 09:38:01;;;;;;;15.98;3.10;;;16.70;99.90;;;;;;5064066;28;20045;-72
2023/09/30 09:40:32;;;;;;;17.15;3.15;;;16.80;99.90;;;;;;5064018;28;20067;-72
2023/09/30 09:42:59;;;;;;;16.90;3.40;;;16.80;99.90;;;;;;5064163;28;20029;-71
2023/09/30 09:45:26;;;;;;;22.13;3.92;;;16.90;99.90;;;;;;5061552;28;20021;-72
2023/09/30 09:47:54;;;;;;;12.25;3.60;;;16.90;99.90;;;;;;5060963;28;20033;-73
2023/09/30 09:50:21;;;;;;;14.95;3.47;;;17.00;99.90;;;;;;5058281;28;20045;-73
2023/09/30 09:52:54;;;;;;;11.85;3.55;;;17.10;99.90;;;;;;5062388;28;20442;-74
2023/09/30 09:55:22;;;;;;;15.90;3.50;;;17.20;99.90;;;;;;5062964;28;20425;-71
2023/09/30 09:57:48;;;;;;;18.08;3.15;;;17.20;99.90;;;;;;5061490;28;20050;-70
2023/09/30 10:00:20;;;;;;;15.00;3.10;;;17.20;99.90;;;;;;5063635;28;20033;-74
2023/09/30 10:02:47;;;;;;;14.48;2.92;;;17.30;99.90;;;;;;5063642;28;20050;-73
2023/09/30 10:05:14;;;;;;;11.23;3.28;;;17.40;99.90;;;;;;5062696;28;20052;-73
2023/09/30 10:07:57;;;;;;;15.32;3.38;;;17.40;99.90;;;;;;5063761;28;20032;-72
2023/09/30 10:10:25;;;;;;;14.30;3.47;;;17.40;99.90;;;;;;5063179;28;20055;-74
2023/09/30 10:12:50;;;;;;;15.32;3.30;;;17.50;99.90;;;;;;5062894;28;20092;-72
2023/09/30 10:15:25;;;;;;;8.85;2.60;;;17.50;99.90;;;;;;5063598;28;20017;-71
2023/09/30 10:18:03;;;;;;;15.20;2.78;;;17.50;99.90;;;;;;5063919;28;20032;-70
2023/09/30 10:20:30;;;;;;;10.25;2.63;;;17.60;99.90;;;;;;5063680;28;20476;-71
2023/09/30 10:23:21;;;;;;;14.80;2.65;;;17.60;99.90;;;;;;5062737;28;20406;-73
2023/09/30 10:25:49;;;;;;;13.25;2.75;;;17.70;99.90;;;;;;5063759;28;20052;-74
2023/09/30 10:28:33;;;;;;;13.05;2.58;;;17.70;99.90;;;;;;5063408;28;20017;-73
2023/09/30 10:31:10;;;;;;;14.90;3.10;;;17.80;99.90;;;;;;5061130;28;20033;-73
2023/09/30 10:33:36;;;;;;;12.13;2.58;;;17.80;99.90;;;;;;5061821;28;20179;-72
2023/09/30 10:36:03;;;;;;;12.25;2.33;;;17.90;99.90;;;;;;5063209;28;20041;-71
2023/09/30 10:38:34;;;;;;;17.58;2.38;;;17.90;99.90;;;;;;5063634;28;20032;-72
2023/09/30 10:41:02;;;;;;;17.70;2.88;;;18.00;99.90;;;;;;5061340;28;20053;-70
2023/09/30 10:43:41;;;;;;;14.75;2.67;;;18.00;99.90;;;;;;5061141;28;20043;-72
2023/09/30 10:46:31;;;;;;;12.65;2.40;;;18.10;99.90;;;;;;5063509;28;20047;-72
2023/09/30 10:48:57;;;;;;;9.40;2.10;;;18.10;99.90;;;;;;5062379;28;20112;-73
2023/09/30 10:51:23;;;;;;;17.10;2.95;;;18.20;99.90;;;;;;5061490;28;20052;-73
2023/09/30 10:53:56;;;;;;;8.63;2.25;;;18.30;99.90;;;;;;5063156;28;20075;-72
2023/09/30 10:56:22;;;;;;;10.20;1.70;;;18.30;99.90;;;;;;5062584;28;20036;-72
2023/09/30 10:58:49;;;;;;;12.40;2.55;;;18.40;99.90;;;;;;5062206;28;20083;-73
2023/09/30 11:01:17;;;;;;;12.65;2.83;;;18.40;99.90;;;;;;5062213;28;20108;-72
2023/09/30 11:03:45;;;;;;;9.35;2.35;;;18.50;99.90;;;;;;5063204;28;20029;-74
2023/09/30 11:06:13;;;;;;;9.85;2.22;;;18.60;99.90;;;;;;5063100;28;20101;-71
2023/09/30 11:08:50;;;;;;;11.52;1.90;;;18.60;99.90;;;;;;5061634;28;20094;-71
2023/09/30 11:11:16;;;;;;;15.18;2.00;;;18.80;99.90;;;;;;5061581;28;20524;-74
2023/09/30 11:13:42;;;;;;;11.20;2.10;;;18.70;99.90;;;;;;5062906;28;20033;-71
2023/09/30 11:16:08;;;;;;;8.80;1.83;;;18.70;99.90;;;;;;5062283;28;20041;-76
2023/09/30 11:18:34;;;;;;;9.02;2.20;;;18.70;99.90;;;;;;5061134;28;20035;-73
2023/09/30 11:21:11;;;;;;;6.60;1.80;;;18.70;99.90;;;;;;5060654;28;20060;-71
2023/09/30 11:23:38;;;;;;;11.10;2.30;;;18.70;99.90;;;;;;5061789;28;20045;-71
2023/09/30 11:26:04;;;;;;;9.38;2.22;;;18.70;99.90;;;;;;5056540;28;20029;-72
2023/09/30 11:28:41;;;;;;;17.88;2.55;;;18.70;99.90;;;;;;5062035;28;20109;-72
2023/09/30 11:31:11;;;;;;;11.70;2.13;;;18.70;99.90;;;;;;5060644;28;20040;-71
2023/09/30 11:33:56;;;;;;;10.95;2.28;;;18.80;99.90;;;;;;5062380;28;20049;-71
2023/09/30 11:36:23;;;;;;;14.57;2.50;;;18.80;99.90;;;;;;5061951;28;20116;-71
2023/09/30 11:38:50;;;;;;;9.85;2.25;;;18.90;99.90;;;;;;5059663;28;20039;-71
2023/09/30 11:41:18;;;;;;;11.48;2.20;;;18.90;99.90;;;;;;5062335;28;20081;-72
2023/09/30 11:44:00;;;;;;;9.13;1.98;;;19.00;99.90;;;;;;5062280;28;20028;-74
2023/09/30 11:46:27;;;;;;;8.48;1.60;;;19.00;99.90;;;;;;5060779;28;20147;-73
2023/09/30 11:49:08;;;;;;;13.75;2.22;;;19.10;99.90;;;;;;5060939;28;20025;-72
2023/09/30 11:51:45;;;;;;;7.68;2.03;;;19.10;99.90;;;;;;5061709;28;20021;-71
2023/09/30 11:54:11;;;;;;;11.60;2.35;;;19.20;99.90;;;;;;5061824;28;20035;-71
2023/09/30 11:56:37;;;;;;;12.30;1.77;;;19.30;99.90;;;;;;5062263;28;20464;-72
2023/09/30 11:59:04;;;;;;;8.25;1.83;;;19.40;99.90;;;;;;5059982;28;20120;-72
2023/09/30 12:01:32;;;;;;;5.97;2.08;;;19.40;99.90;;;;;;5061195;28;20025;-72
2023/09/30 12:03:58;;;;;;;6.28;1.77;;;19.50;99.90;;;;;;5061349;28;20017;-71
2023/09/30 12:06:23;;;;;;;11.13;2.38;;;19.60;99.90;;;;;;5061200;28;20504;-70
2023/09/30 12:08:51;;;;;;;10.57;1.70;;;19.60;99.90;;;;;;5061926;28;20032;-71
2023/09/30 12:11:18;;;;;;;12.98;1.98;;;19.60;99.90;;;;;;5060404;28;20024;-73
2023/09/30 12:13:48;;;;;;;7.35;1.45;;;19.70;99.90;;;;;;5061411;28;20033;-70
2023/09/30 12:16:15;;;;;;;6.57;1.63;;;19.80;99.90;;;;;;5061553;28;20108;-72
2023/09/30 12:18:41;;;;;;;7.25;1.63;;;19.80;99.90;;;;;;5061639;28;20021;-73
2023/09/30 12:21:10;;;;;;;8.80;1.70;;;19.90;99.90;;;;;;5060251;28;20029;-70
2023/09/30 12:23:37;;;;;;;8.77;1.73;;;19.80;99.90;;;;;;5059710;28;20064;-72
2023/09/30 12:26:06;;;;;;;12.70;1.88;;;19.70;99.90;;;;;;5057998;28;20025;-73
2023/09/30 12:28:32;;;;;;;9.32;1.95;;;19.60;99.90;;;;;;5057595;28;20401;-71
2023/09/30 12:31:01;;;;;;;7.13;2.13;;;19.40;99.90;;;;;;5059971;28;20112;-73
2023/09/30 12:33:27;;;;;;;13.02;1.98;;;19.30;99.90;;;;;;5059394;28;20120;-71
2023/09/30 12:35:53;;;;;;;8.15;1.77;;;19.40;99.90;;;;;;5061163;28;20048;-72
2023/09/30 12:38:19;;;;;;;5.90;1.50;;;19.40;99.90;;;;;;5061497;28;20028;-71
2023/09/30 12:40:44;;;;;;;10.75;2.03;;;19.40;99.90;;;;;;5061604;28;20067;-73